createdAt,value
2023-01-11T00:02:14.653Z,100619.75
2023-01-11T00:04:41.486Z,100605.56
2023-01-11T00:07:08.179Z,100601.84
2023-01-11T00:09:34.833Z,100606.50
2023-01-11T00:12:01.485Z,100604.75
2023-01-11T00:14:28.278Z,100604.44
2023-01-11T00:16:55.103Z,100597.88
2023-01-11T00:19:21.857Z,100600.25
2023-01-11T00:21:49.487Z,100587.69
2023-01-11T00:24:16.257Z,100596.13
2023-01-11T00:26:42.882Z,100597.22
2023-01-11T00:29:09.491Z,100593.38
2023-01-11T00:31:36.170Z,100587.41
2023-01-11T00:34:02.952Z,100585.00
2023-01-11T00:36:29.972Z,100578.56
2023-01-11T00:38:56.643Z,100577.56
2023-01-11T00:41:42.157Z,100572.19
2023-01-11T00:44:28.859Z,100567.50
2023-01-11T00:47:15.764Z,100547.53
2023-01-11T00:49:43.202Z,100550.56
2023-01-11T00:52:10.226Z,100542.91
2023-01-11T00:54:41.569Z,100545.44
2023-01-11T00:57:08.758Z,100534.94
2023-01-11T00:59:37.017Z,100527.56
2023-01-11T01:02:04.266Z,100526.47
2023-01-11T01:04:31.851Z,100525.06
2023-01-11T01:06:58.839Z,100517.91
2023-01-11T01:09:25.691Z,100518.91
2023-01-11T01:11:52.494Z,100523.03
2023-01-11T01:14:29.320Z,100525.28
2023-01-11T01:17:02.199Z,100511.66
2023-01-11T01:19:30.520Z,100516.63
2023-01-11T01:21:58.796Z,100520.53
2023-01-11T01:24:28.817Z,100515.81
2023-01-11T01:26:56.919Z,100515.41
2023-01-11T01:29:24.011Z,100516.09
2023-01-11T01:31:51.028Z,100511.81
2023-01-11T01:34:18.048Z,100519.41
2023-01-11T01:36:44.927Z,100517.47
2023-01-11T01:39:12.857Z,100508.53
2023-01-11T01:41:39.796Z,100512.47
2023-01-11T01:44:44.904Z,100518.75
2023-01-11T01:47:12.392Z,100518.56
2023-01-11T01:49:40.089Z,100522.53
2023-01-11T01:52:07.850Z,100514.56
2023-01-11T01:54:39.350Z,100512.50
2023-01-11T01:57:12.552Z,100507.59
2023-01-11T01:59:41.535Z,100516.56
2023-01-11T02:02:08.489Z,100518.28
2023-01-11T02:04:44.006Z,100523.25
2023-01-11T02:07:17.388Z,100528.88
2023-01-11T02:10:15.100Z,100516.91
2023-01-11T02:12:52.649Z,100519.94
2023-01-11T02:15:22.179Z,100498.53
2023-01-11T02:17:58.323Z,100505.06
2023-01-11T02:21:00.091Z,100513.56
2023-01-11T02:24:00.432Z,100498.47
2023-01-11T02:27:06.072Z,100500.13
2023-01-11T02:29:49.353Z,100501.97
2023-01-11T02:32:40.173Z,100498.09
2023-01-11T02:35:27.135Z,100483.97
2023-01-11T02:38:24.678Z,100480.81
2023-01-11T02:41:01.110Z,100480.06
2023-01-11T02:44:05.105Z,100473.94
2023-01-11T02:46:49.450Z,100470.28
2023-01-11T02:49:33.409Z,100480.06
2023-01-11T02:52:12.938Z,100466.09
2023-01-11T02:54:43.767Z,100472.69
2023-01-11T02:57:12.104Z,100477.81
2023-01-11T02:59:40.430Z,100471.22
2023-01-11T03:02:07.258Z,100469.22
2023-01-11T03:04:36.243Z,100453.72
2023-01-11T03:07:27.696Z,100453.78
2023-01-11T03:10:06.205Z,100455.94
2023-01-11T03:12:51.908Z,100456.25
2023-01-11T03:15:33.942Z,100450.38
2023-01-11T03:18:23.156Z,100450.22
2023-01-11T03:21:10.303Z,100452.31
2023-01-11T03:24:10.240Z,100449.50
2023-01-11T03:26:56.580Z,100456.34
2023-01-11T03:29:35.664Z,100447.53
2023-01-11T03:32:29.822Z,100458.16
2023-01-11T03:35:16.879Z,100463.09
2023-01-11T03:37:54.772Z,100453.66
2023-01-11T03:40:30.653Z,100445.78
2023-01-11T03:43:13.922Z,100442.06
2023-01-11T03:45:50.205Z,100434.25
2023-01-11T03:48:22.392Z,100428.09
2023-01-11T03:50:52.683Z,100429.41
2023-01-11T03:53:22.646Z,100422.88
2023-01-11T03:55:54.570Z,100414.03
2023-01-11T03:58:21.588Z,100415.06
2023-01-11T04:00:49.615Z,100414.59
2023-01-11T04:03:16.368Z,100405.75
2023-01-11T04:05:46.809Z,100403.38
2023-01-11T04:08:13.721Z,100401.16
2023-01-11T04:10:40.511Z,100396.44
2023-01-11T04:13:07.130Z,100399.94
2023-01-11T04:15:34.767Z,100395.06
2023-01-11T04:18:05.274Z,100390.78
2023-01-11T04:20:34.120Z,100390.09
2023-01-11T04:23:00.885Z,100381.75
2023-01-11T04:25:27.791Z,100378.50
2023-01-11T04:27:54.449Z,100372.44
2023-01-11T04:30:21.474Z,100374.91
2023-01-11T04:32:48.442Z,100372.50
2023-01-11T04:35:15.368Z,100364.66
2023-01-11T04:37:42.078Z,100362.66
2023-01-11T04:40:09.680Z,100356.50
2023-01-11T04:42:36.590Z,100357.66
2023-01-11T04:45:06.021Z,100346.16
2023-01-11T04:47:33.826Z,100351.53
2023-01-11T04:50:00.582Z,100345.13
2023-01-11T04:52:27.218Z,100352.66
2023-01-11T04:54:54.029Z,100349.84
2023-01-11T04:57:21.321Z,100356.06
2023-01-11T04:59:49.013Z,100361.81
2023-01-11T05:02:16.065Z,100357.78
2023-01-11T05:04:43.127Z,100352.09
2023-01-11T05:07:10.694Z,100342.22
2023-01-11T05:09:37.413Z,100346.03
2023-01-11T05:12:04.267Z,100349.53
2023-01-11T05:14:30.976Z,100352.94
2023-01-11T05:16:57.634Z,100348.13
2023-01-11T05:19:24.430Z,100347.56
2023-01-11T05:21:51.032Z,100350.53
2023-01-11T05:24:17.786Z,100360.06
2023-01-11T05:26:46.022Z,100358.91
2023-01-11T05:29:16.211Z,100349.59
2023-01-11T05:31:43.195Z,100350.03
2023-01-11T05:34:13.232Z,100341.50
2023-01-11T05:36:40.493Z,100354.88
2023-01-11T05:39:07.247Z,100343.06
2023-01-11T05:41:34.716Z,100341.19
2023-01-11T05:44:19.970Z,100339.00
2023-01-11T05:46:46.692Z,100333.16
2023-01-11T05:49:13.997Z,100338.53
2023-01-11T05:51:42.145Z,100321.41
2023-01-11T05:54:14.134Z,100320.97
2023-01-11T05:56:42.370Z,100313.06
2023-01-11T05:59:09.196Z,100308.72
2023-01-11T06:01:35.937Z,100308.84
2023-01-11T06:04:02.716Z,100303.53
2023-01-11T06:06:29.640Z,100298.41
2023-01-11T06:08:56.424Z,100292.25
2023-01-11T06:11:23.109Z,100289.56
2023-01-11T06:13:49.745Z,100285.72
2023-01-11T06:16:19.329Z,100287.00
2023-01-11T06:18:51.288Z,100282.81
2023-01-11T06:21:18.531Z,100274.19
2023-01-11T06:23:47.607Z,100275.03
2023-01-11T06:26:16.546Z,100266.97
2023-01-11T06:28:44.686Z,100267.22
2023-01-11T06:31:11.958Z,100263.69
2023-01-11T06:33:38.854Z,100267.56
2023-01-11T06:36:08.082Z,100257.53
2023-01-11T06:38:35.765Z,100264.06
2023-01-11T06:41:04.907Z,100259.19
2023-01-11T06:43:32.628Z,100250.44
2023-01-11T06:46:00.892Z,100251.34
2023-01-11T06:48:28.206Z,100253.44
2023-01-11T06:50:57.032Z,100254.63
2023-01-11T06:53:27.431Z,100255.66
2023-01-11T06:55:56.758Z,100248.22
2023-01-11T06:58:24.979Z,100252.88
2023-01-11T07:00:53.189Z,100252.31
2023-01-11T07:03:24.197Z,100250.31
2023-01-11T07:05:56.898Z,100253.22
2023-01-11T07:08:25.848Z,100246.72
2023-01-11T07:10:53.251Z,100255.56
2023-01-11T07:13:20.075Z,100249.97
2023-01-11T07:15:49.891Z,100235.16
2023-01-11T07:18:18.735Z,100239.00
2023-01-11T07:20:45.501Z,100240.75
2023-01-11T07:23:12.196Z,100232.13
2023-01-11T07:25:39.335Z,100235.03
2023-01-11T07:28:08.051Z,100231.19
2023-01-11T07:30:55.371Z,100234.69
2023-01-11T07:33:24.369Z,100223.47
2023-01-11T07:35:51.072Z,100231.19
2023-01-11T07:38:17.998Z,100237.84
2023-01-11T07:40:44.703Z,100232.09
2023-01-11T07:43:14.755Z,100236.31
2023-01-11T07:45:49.101Z,100226.16
2023-01-11T07:48:20.993Z,100232.81
2023-01-11T07:50:47.906Z,100233.41
2023-01-11T07:53:14.780Z,100251.44
2023-01-11T07:55:41.598Z,100239.00
2023-01-11T07:58:12.900Z,100245.50
2023-01-11T08:00:43.620Z,100231.66
2023-01-11T08:03:10.843Z,100230.00
2023-01-11T08:05:38.021Z,100238.66
2023-01-11T08:08:05.555Z,100238.53
2023-01-11T08:10:33.004Z,100243.19
2023-01-11T08:13:18.464Z,100251.13
2023-01-11T08:15:45.189Z,100241.78
2023-01-11T08:18:12.773Z,100243.41
2023-01-11T08:20:40.284Z,100236.78
2023-01-11T08:23:09.731Z,100237.72
2023-01-11T08:25:36.877Z,100240.88
2023-01-11T08:28:05.925Z,100244.69
2023-01-11T08:30:33.140Z,100234.09
2023-01-11T08:33:04.303Z,100230.13
2023-01-11T08:35:32.387Z,100236.41
2023-01-11T08:37:59.000Z,100233.06
2023-01-11T08:40:25.791Z,100231.53
2023-01-11T08:42:59.235Z,100234.91
2023-01-11T08:45:26.187Z,100230.47
2023-01-11T08:47:53.184Z,100239.66
2023-01-11T08:50:21.274Z,100230.22
2023-01-11T08:52:51.564Z,100234.19
2023-01-11T08:55:21.189Z,100234.44
2023-01-11T08:57:47.846Z,100235.25
2023-01-11T09:00:15.135Z,100233.06
2023-01-11T09:02:42.176Z,100232.47
2023-01-11T09:05:09.701Z,100236.28
2023-01-11T09:07:37.817Z,100233.03
2023-01-11T09:10:05.156Z,100233.72
2023-01-11T09:12:32.655Z,100240.03
2023-01-11T09:14:59.852Z,100239.22
2023-01-11T09:17:26.983Z,100236.63
2023-01-11T09:19:53.759Z,100251.09
2023-01-11T09:22:20.532Z,100245.97
2023-01-11T09:24:47.146Z,100250.75
2023-01-11T09:27:14.163Z,100249.56
2023-01-11T09:29:41.190Z,100259.56
2023-01-11T09:32:07.991Z,100246.63
2023-01-11T09:34:35.075Z,100248.72
2023-01-11T09:37:03.905Z,100250.66
2023-01-11T09:39:30.964Z,100265.72
2023-01-11T09:42:15.893Z,100255.22
2023-01-11T09:44:56.562Z,100255.84
2023-01-11T09:47:34.043Z,100261.66
2023-01-11T09:50:06.812Z,100261.22
2023-01-11T09:52:39.789Z,100267.50
2023-01-11T09:55:14.412Z,100267.50
2023-01-11T09:57:54.116Z,100268.22
2023-01-11T10:00:37.309Z,100269.84
2023-01-11T10:03:22.063Z,100267.50
2023-01-11T10:06:00.362Z,100272.63
2023-01-11T10:18:31.764Z,100263.59
2023-01-11T10:19:18.541Z,100260.00
2023-01-11T10:21:55.784Z,100256.25
2023-01-11T10:24:31.233Z,100251.94
2023-01-11T10:27:03.875Z,100255.91
2023-01-11T10:29:48.475Z,100252.66
2023-01-11T10:32:34.377Z,100258.13
2023-01-11T10:35:20.438Z,100249.84
2023-01-11T10:38:04.043Z,100251.91
2023-01-11T10:41:01.712Z,100248.97
2023-01-11T10:43:31.630Z,100266.63
2023-01-11T10:48:46.056Z,100266.38
2023-01-11T10:51:34.505Z,100272.00
2023-01-11T10:54:14.198Z,100280.56
2023-01-11T10:57:18.010Z,100277.72
2023-01-11T11:00:13.500Z,100278.69
2023-01-11T11:03:04.313Z,100276.47
2023-01-11T11:05:50.851Z,100282.47
2023-01-11T11:08:27.604Z,100287.69
2023-01-11T11:11:23.144Z,100295.16
2023-01-11T11:14:23.176Z,100284.44
2023-01-11T11:17:16.423Z,100267.84
2023-01-11T11:19:43.273Z,100264.94
2023-01-11T11:22:12.405Z,100271.22
2023-01-11T11:24:43.959Z,100279.00
2023-01-11T11:27:50.936Z,100278.88
2023-01-11T11:30:41.713Z,100282.69
2023-01-11T11:33:16.341Z,100286.06
2023-01-11T11:35:46.292Z,100272.88
2023-01-11T11:38:22.746Z,100273.34
2023-01-11T11:41:04.273Z,100268.81
2023-01-11T11:43:33.106Z,100269.78
2023-01-11T11:46:05.030Z,100265.88
2023-01-11T11:48:34.126Z,100261.56
2023-01-11T11:51:03.595Z,100261.16
2023-01-11T11:53:33.617Z,100257.81
2023-01-11T11:56:06.527Z,100248.78
2023-01-11T11:58:33.673Z,100233.09
2023-01-11T12:01:00.493Z,100232.28
2023-01-11T12:03:32.197Z,100226.97
2023-01-11T12:06:04.366Z,100239.66
2023-01-11T12:08:34.515Z,100245.03
2023-01-11T12:11:04.011Z,100245.47
2023-01-11T12:13:33.956Z,100242.53
2023-01-11T12:16:04.151Z,100245.22
2023-01-11T12:18:42.861Z,100240.66
2023-01-11T12:21:09.606Z,100239.78
2023-01-11T12:23:36.281Z,100230.09
2023-01-11T12:26:16.575Z,100236.91
2023-01-11T12:29:06.764Z,100241.53
2023-01-11T12:32:03.198Z,100241.41
2023-01-11T12:34:59.019Z,100239.28
2023-01-11T12:37:52.200Z,100238.22
2023-01-11T12:40:25.433Z,100238.22
2023-01-11T12:43:26.393Z,100233.72
2023-01-11T12:45:59.469Z,100239.66
2023-01-11T12:48:40.360Z,100249.59
2023-01-11T12:51:37.884Z,100247.50
2023-01-11T12:54:04.453Z,100254.66
2023-01-11T12:57:11.574Z,100261.34
2023-01-11T13:00:08.514Z,100265.41
2023-01-11T13:02:46.656Z,100272.06
2023-01-11T13:05:26.684Z,100282.31
2023-01-11T13:08:07.187Z,100285.94
2023-01-11T13:11:11.935Z,100274.94
2023-01-11T13:13:38.523Z,100277.94
2023-01-11T13:16:17.609Z,100282.09
2023-01-11T13:18:50.436Z,100277.13
2023-01-11T13:21:35.455Z,100277.94
2023-01-11T13:24:09.978Z,100290.81
2023-01-11T13:26:41.017Z,100290.88
2023-01-11T13:29:15.736Z,100284.47
2023-01-11T13:31:45.990Z,100277.63
2023-01-11T13:34:34.743Z,100283.06
2023-01-11T13:37:36.688Z,100291.72
2023-01-11T13:40:09.892Z,100293.41
2023-01-11T13:42:48.492Z,100302.88
2023-01-11T13:45:35.151Z,100307.19
2023-01-11T13:48:12.019Z,100310.22
2023-01-11T13:50:44.339Z,100308.66
2023-01-11T13:53:11.092Z,100319.72
2023-01-11T13:56:06.275Z,100326.47
2023-01-11T13:58:48.887Z,100334.63
2023-01-11T14:01:20.287Z,100345.72
2023-01-11T14:03:53.215Z,100340.34
2023-01-11T14:06:45.252Z,100347.50
2023-01-11T14:09:43.327Z,100351.50
2023-01-11T14:12:30.572Z,100349.97
2023-01-11T14:15:31.544Z,100346.47
2023-01-11T14:18:10.026Z,100353.22
2023-01-11T14:20:42.745Z,100358.75
2023-01-11T14:23:13.118Z,100366.16
2023-01-11T14:26:02.248Z,100362.50
2023-01-11T14:28:53.646Z,100366.41
2023-01-11T14:31:37.848Z,100368.13
2023-01-11T14:34:26.557Z,100374.81
2023-01-11T14:37:17.436Z,100377.75
2023-01-11T14:40:05.805Z,100374.97
2023-01-11T14:42:53.765Z,100374.88
2023-01-11T14:45:36.945Z,100378.13
2023-01-11T14:48:45.451Z,100387.75
2023-01-11T14:51:32.500Z,100387.13
2023-01-11T14:54:16.758Z,100407.59
2023-01-11T14:56:43.392Z,100414.34
2023-01-11T14:59:29.021Z,100412.84
2023-01-11T15:02:04.704Z,100424.28
2023-01-11T15:04:37.008Z,100431.03
2023-01-11T15:07:24.135Z,100437.16
2023-01-11T15:09:53.609Z,100437.88
2023-01-11T15:12:37.115Z,100445.94
2023-01-11T15:15:07.152Z,100450.84
2023-01-11T15:17:53.405Z,100453.19
2023-01-11T15:20:21.909Z,100449.09
2023-01-11T15:23:16.742Z,100461.25
2023-01-11T15:25:49.272Z,100466.53
2023-01-11T15:28:54.323Z,100465.53
2023-01-11T15:31:44.037Z,100460.97
2023-01-11T15:34:24.814Z,100463.66
2023-01-11T15:36:57.384Z,100476.53
2023-01-11T15:39:46.466Z,100481.81
2023-01-11T15:42:16.062Z,100477.16
2023-01-11T15:44:48.822Z,100475.63
2023-01-11T15:47:52.775Z,100480.19
2023-01-11T15:50:41.391Z,100487.19
2023-01-11T15:53:28.606Z,100493.28
2023-01-11T15:56:34.968Z,100495.97
2023-01-11T15:59:37.325Z,100511.19
2023-01-11T16:02:27.634Z,100517.63
2023-01-11T16:05:11.310Z,100523.34
2023-01-11T16:07:43.349Z,100528.28
2023-01-11T16:10:30.113Z,100544.00
2023-01-11T16:13:10.312Z,100548.31
2023-01-11T16:15:43.120Z,100550.59
2023-01-11T16:18:25.008Z,100543.44
2023-01-11T16:21:02.702Z,100552.06
2023-01-11T16:23:33.943Z,100552.47
2023-01-11T16:26:01.478Z,100569.84
2023-01-11T16:28:28.548Z,100569.84
2023-01-11T16:31:04.759Z,100565.66
2023-01-11T16:33:34.473Z,100575.59
2023-01-11T16:36:10.486Z,100583.75
2023-01-11T16:38:55.803Z,100590.91
2023-01-11T16:41:25.735Z,100590.19
2023-01-11T16:44:02.225Z,100596.38
2023-01-11T16:46:56.458Z,100599.31
2023-01-11T16:49:23.915Z,100595.56
2023-01-11T16:51:50.725Z,100607.50
2023-01-11T16:54:25.187Z,100603.75
2023-01-11T16:56:52.516Z,100607.03
2023-01-11T16:59:26.375Z,100606.31
2023-01-11T17:01:59.318Z,100618.59
2023-01-11T17:04:38.032Z,100613.56
2023-01-11T17:07:26.385Z,100612.41
2023-01-11T17:09:53.466Z,100611.00
2023-01-11T17:12:26.041Z,100619.28
2023-01-11T17:15:07.597Z,100623.84
2023-01-11T17:17:36.856Z,100620.22
2023-01-11T17:20:10.602Z,100624.63
2023-01-11T17:22:37.782Z,100628.25
2023-01-11T17:25:15.856Z,100632.91
2023-01-11T17:27:50.872Z,100639.91
2023-01-11T17:30:21.533Z,100641.78
2023-01-11T17:32:53.756Z,100659.53
2023-01-11T17:35:23.347Z,100662.44
2023-01-11T17:37:52.290Z,100670.28
2023-01-11T17:40:28.223Z,100676.19
2023-01-11T17:43:18.937Z,100682.63
2023-01-11T17:45:50.999Z,100679.69
2023-01-11T17:48:20.448Z,100686.03
2023-01-11T17:50:54.544Z,100684.47
2023-01-11T17:53:32.460Z,100692.78
2023-01-11T17:56:05.247Z,100692.19
2023-01-11T17:58:34.307Z,100702.22
2023-01-11T18:01:04.011Z,100697.69
2023-01-11T18:03:38.800Z,100702.09
2023-01-11T18:06:41.518Z,100704.53
2023-01-11T18:09:22.166Z,100701.38
2023-01-11T18:11:51.404Z,100710.56
2023-01-11T18:14:34.178Z,100712.09
2023-01-11T18:17:26.024Z,100717.06
2023-01-11T18:19:53.984Z,100721.50
2023-01-11T18:22:32.078Z,100727.75
2023-01-11T18:25:04.258Z,100738.13
2023-01-11T18:27:35.367Z,100738.00
2023-01-11T18:30:08.749Z,100743.59
2023-01-11T18:32:43.044Z,100749.31
2023-01-11T18:35:19.865Z,100760.63
2023-01-11T18:37:48.312Z,100757.25
2023-01-11T18:40:17.614Z,100763.69
2023-01-11T18:42:51.207Z,100764.59
2023-01-11T18:45:18.743Z,100783.22
2023-01-11T18:47:46.351Z,100784.66
2023-01-11T18:50:13.681Z,100781.16
2023-01-11T18:52:40.830Z,100777.41
2023-01-11T18:55:11.365Z,100783.22
2023-01-11T18:57:37.987Z,100781.44
2023-01-11T19:00:05.637Z,100784.47
2023-01-11T19:02:45.720Z,100784.19
2023-01-11T19:05:14.506Z,100777.03
2023-01-11T19:07:41.631Z,100786.72
2023-01-11T19:10:09.528Z,100787.97
2023-01-11T19:12:36.532Z,100800.53
2023-01-11T19:15:03.325Z,100802.38
2023-01-11T19:17:32.079Z,100808.47
2023-01-11T19:19:59.151Z,100809.44
2023-01-11T19:22:26.805Z,100808.03
2023-01-11T19:24:55.126Z,100809.97
2023-01-11T19:27:23.737Z,100813.25
2023-01-11T19:29:53.960Z,100815.84
2023-01-11T19:32:25.287Z,100814.81
2023-01-11T19:34:59.001Z,100818.03
2023-01-11T19:37:30.711Z,100815.69
2023-01-11T19:39:57.872Z,100814.81
2023-01-11T19:42:24.742Z,100806.09
2023-01-11T19:44:51.607Z,100806.19
2023-01-11T19:47:18.799Z,100813.59
2023-01-11T19:49:46.156Z,100815.69
2023-01-11T19:52:18.900Z,100818.09
2023-01-11T19:54:46.752Z,100815.25
2023-01-11T19:57:18.879Z,100810.06
2023-01-11T19:59:49.746Z,100808.09
2023-01-11T20:02:19.070Z,100815.84
2023-01-11T20:04:46.438Z,100824.13
2023-01-11T20:07:15.278Z,100820.25
2023-01-11T20:09:43.116Z,100820.16
2023-01-11T20:12:12.110Z,100809.75
2023-01-11T20:14:40.564Z,100806.84
2023-01-11T20:17:07.877Z,100817.50
2023-01-11T20:19:34.989Z,100815.94
2023-01-11T20:22:01.812Z,100806.97
2023-01-11T20:24:29.704Z,100810.72
2023-01-11T20:26:59.347Z,100818.16
2023-01-11T20:29:26.625Z,100810.47
2023-01-11T20:31:53.855Z,100811.41
2023-01-11T20:34:21.127Z,100801.78
2023-01-11T20:36:48.907Z,100819.34
2023-01-11T20:39:17.420Z,100814.88
2023-01-11T20:41:47.271Z,100806.66
2023-01-11T20:44:17.984Z,100796.81
2023-01-11T20:46:47.803Z,100804.66
2023-01-11T20:49:15.488Z,100804.28
2023-01-11T20:51:42.843Z,100802.88
2023-01-11T20:54:10.255Z,100800.66
2023-01-11T20:56:38.553Z,100794.94
2023-01-11T20:59:07.635Z,100803.84
2023-01-11T21:01:36.293Z,100797.25
2023-01-11T21:04:08.954Z,100786.75
2023-01-11T21:06:38.499Z,100791.44
2023-01-11T21:09:07.204Z,100775.59
2023-01-11T21:11:34.442Z,100772.91
2023-01-11T21:14:04.093Z,100781.78
2023-01-11T21:16:31.492Z,100773.94
2023-01-11T21:19:00.802Z,100773.56
2023-01-11T21:21:29.844Z,100780.78
2023-01-11T21:23:59.635Z,100774.44
2023-01-11T21:26:27.644Z,100779.78
2023-01-11T21:28:59.982Z,100779.78
2023-01-11T21:31:28.600Z,100782.69
2023-01-11T21:33:55.862Z,100771.94
2023-01-11T21:36:27.765Z,100762.66
2023-01-11T21:38:56.693Z,100766.38
2023-01-11T21:41:44.599Z,100768.00
2023-01-11T21:44:12.923Z,100769.41
2023-01-11T21:46:40.501Z,100771.88
2023-01-11T21:49:07.414Z,100766.06
2023-01-11T21:51:34.568Z,100765.22
2023-01-11T21:54:06.017Z,100769.78
2023-01-11T21:56:33.355Z,100770.25
2023-01-11T21:59:00.375Z,100784.22
2023-01-11T22:01:27.793Z,100787.13
2023-01-11T22:03:54.661Z,100785.88
2023-01-11T22:06:21.487Z,100786.31
2023-01-11T22:08:48.375Z,100789.34
2023-01-11T22:11:16.956Z,100784.78
2023-01-11T22:13:43.855Z,100786.69
2023-01-11T22:16:13.228Z,100785.88
2023-01-11T22:18:41.204Z,100782.38
2023-01-11T22:21:16.959Z,100782.94
2023-01-11T22:23:46.064Z,100793.41
2023-01-11T22:26:16.243Z,100802.94
2023-01-11T22:29:02.203Z,100804.50
2023-01-11T22:31:30.037Z,100801.69
2023-01-11T22:33:57.649Z,100809.94
2023-01-11T22:36:25.649Z,100803.56
2023-01-11T22:38:52.820Z,100801.69
2023-01-11T22:41:20.187Z,100796.09
2023-01-11T22:43:47.268Z,100791.94
2023-01-11T22:46:16.846Z,100798.19
2023-01-11T22:48:44.629Z,100804.34
2023-01-11T22:51:11.814Z,100796.13
2023-01-11T22:53:43.512Z,100793.91
2023-01-11T22:56:11.395Z,100786.31
2023-01-11T22:58:38.509Z,100783.25
2023-01-11T23:01:11.754Z,100791.31
2023-01-11T23:03:39.092Z,100779.41
2023-01-11T23:06:06.784Z,100783.53
2023-01-11T23:08:41.658Z,100795.47
2023-01-11T23:11:36.177Z,100788.88
2023-01-11T23:14:04.987Z,100793.22
2023-01-11T23:16:31.917Z,100792.78
2023-01-11T23:18:58.940Z,100789.28
2023-01-11T23:21:25.622Z,100786.00
2023-01-11T23:23:53.288Z,100790.75
2023-01-11T23:26:21.037Z,100788.13
2023-01-11T23:28:49.991Z,100787.91
2023-01-11T23:31:19.925Z,100796.50
2023-01-11T23:33:52.076Z,100795.47
2023-01-11T23:36:20.565Z,100792.34
2023-01-11T23:38:47.900Z,100794.66
2023-01-11T23:41:36.478Z,100781.06
2023-01-11T23:44:09.216Z,100777.75
2023-01-11T23:46:55.970Z,100777.31
2023-01-11T23:49:26.973Z,100773.44
2023-01-11T23:51:55.039Z,100763.16
2023-01-11T23:54:22.532Z,100767.06
2023-01-11T23:56:49.412Z,100768.69
2023-01-11T23:59:16.120Z,100761.47
